sensor_id;sensor_type;location;lat;lon;timestamp;P1;durP1;ratioP1;P2;durP2;ratioP2
19969;SDS011;10146;47.754;9.566;2023-09-19T00:02:02;2.85;;;1.90;;
19969;SDS011;10146;47.754;9.566;2023-09-19T00:04:31;3.50;;;1.50;;
19969;SDS011;10146;47.754;9.566;2023-09-19T00:06:58;5.55;;;1.77;;
19969;SDS011;10146;47.754;9.566;2023-09-19T00:09:27;3.38;;;1.70;;
19969;SDS011;10146;47.754;9.566;2023-09-19T00:11:53;4.32;;;1.58;;
19969;SDS011;10146;47.754;9.566;2023-09-19T00:14:19;5.65;;;2.10;;
19969;SDS011;10146;47.754;9.566;2023-09-19T00:16:45;4.53;;;1.67;;
19969;SDS011;10146;47.754;9.566;2023-09-19T00:19:11;3.58;;;1.77;;
19969;SDS011;10146;47.754;9.566;2023-09-19T00:21:38;3.42;;;1.80;;
19969;SDS011;10146;47.754;9.566;2023-09-19T00:24:04;2.60;;;1.70;;
19969;SDS011;10146;47.754;9.566;2023-09-19T00:26:31;3.50;;;2.17;;
19969;SDS011;10146;47.754;9.566;2023-09-19T00:28:59;4.22;;;1.60;;
19969;SDS011;10146;47.754;9.566;2023-09-19T00:31:30;3.47;;;1.70;;
19969;SDS011;10146;47.754;9.566;2023-09-19T00:33:56;2.65;;;1.88;;
19969;SDS011;10146;47.754;9.566;2023-09-19T00:36:27;2.60;;;1.63;;
19969;SDS011;10146;47.754;9.566;2023-09-19T00:38:54;4.05;;;1.40;;
19969;SDS011;10146;47.754;9.566;2023-09-19T00:41:19;2.97;;;1.67;;
19969;SDS011;10146;47.754;9.566;2023-09-19T00:43:46;3.15;;;1.60;;
19969;SDS011;10146;47.754;9.566;2023-09-19T00:46:12;3.97;;;1.90;;
19969;SDS011;10146;47.754;9.566;2023-09-19T00:48:41;3.10;;;1.77;;
19969;SDS011;10146;47.754;9.566;2023-09-19T00:51:11;2.95;;;1.70;;
19969;SDS011;10146;47.754;9.566;2023-09-19T00:53:38;2.47;;;1.60;;
19969;SDS011;10146;47.754;9.566;2023-09-19T00:56:04;2.95;;;1.83;;
19969;SDS011;10146;47.754;9.566;2023-09-19T00:58:31;4.22;;;1.73;;
19969;SDS011;10146;47.754;9.566;2023-09-19T01:00:58;3.40;;;1.80;;
19969;SDS011;10146;47.754;9.566;2023-09-19T01:03:24;3.33;;;1.70;;
19969;SDS011;10146;47.754;9.566;2023-09-19T01:05:50;2.60;;;1.60;;
19969;SDS011;10146;47.754;9.566;2023-09-19T01:08:16;1.90;;;1.70;;
19969;SDS011;10146;47.754;9.566;2023-09-19T01:13:56;5.18;;;1.80;;
19969;SDS011;10146;47.754;9.566;2023-09-19T01:16:31;1.98;;;1.58;;
19969;SDS011;10146;47.754;9.566;2023-09-19T01:19:25;4.55;;;1.50;;
19969;SDS011;10146;47.754;9.566;2023-09-19T01:22:13;4.20;;;1.60;;
19969;SDS011;10146;47.754;9.566;2023-09-19T01:30:14;3.70;;;1.70;;
19969;SDS011;10146;47.754;9.566;2023-09-19T01:32:47;2.97;;;1.63;;
19969;SDS011;10146;47.754;9.566;2023-09-19T01:35:17;3.00;;;1.90;;
19969;SDS011;10146;47.754;9.566;2023-09-19T01:37:43;3.70;;;1.73;;
19969;SDS011;10146;47.754;9.566;2023-09-19T01:40:10;2.25;;;1.45;;
19969;SDS011;10146;47.754;9.566;2023-09-19T01:42:46;2.10;;;1.55;;
19969;SDS011;10146;47.754;9.566;2023-09-19T01:45:33;4.20;;;1.75;;
19969;SDS011;10146;47.754;9.566;2023-09-19T01:48:28;1.52;;;1.40;;
19969;SDS011;10146;47.754;9.566;2023-09-19T01:51:11;3.03;;;1.70;;
19969;SDS011;10146;47.754;9.566;2023-09-19T01:53:50;1.70;;;1.60;;
19969;SDS011;10146;47.754;9.566;2023-09-19T01:56:31;2.33;;;1.50;;
19969;SDS011;10146;47.754;9.566;2023-09-19T01:59:04;2.13;;;1.48;;
19969;SDS011;10146;47.754;9.566;2023-09-19T02:01:34;4.55;;;1.80;;
19969;SDS011;10146;47.754;9.566;2023-09-19T02:04:02;3.63;;;2.10;;
19969;SDS011;10146;47.754;9.566;2023-09-19T02:06:27;1.88;;;1.30;;
19969;SDS011;10146;47.754;9.566;2023-09-19T02:08:53;2.88;;;1.80;;
19969;SDS011;10146;47.754;9.566;2023-09-19T02:11:19;3.80;;;1.60;;
19969;SDS011;10146;47.754;9.566;2023-09-19T02:13:45;2.50;;;1.55;;
19969;SDS011;10146;47.754;9.566;2023-09-19T02:16:11;4.15;;;1.40;;
19969;SDS011;10146;47.754;9.566;2023-09-19T02:18:37;3.33;;;1.60;;
19969;SDS011;10146;47.754;9.566;2023-09-19T02:21:04;3.00;;;1.30;;
19969;SDS011;10146;47.754;9.566;2023-09-19T02:23:31;1.73;;;1.38;;
19969;SDS011;10146;47.754;9.566;2023-09-19T02:25:58;3.00;;;1.85;;
19969;SDS011;10146;47.754;9.566;2023-09-19T02:28:25;3.15;;;1.60;;
19969;SDS011;10146;47.754;9.566;2023-09-19T02:30:55;1.65;;;1.52;;
19969;SDS011;10146;47.754;9.566;2023-09-19T02:33:21;2.53;;;1.63;;
19969;SDS011;10146;47.754;9.566;2023-09-19T02:35:47;2.90;;;1.27;;
19969;SDS011;10146;47.754;9.566;2023-09-19T02:38:12;4.00;;;1.40;;
19969;SDS011;10146;47.754;9.566;2023-09-19T02:40:39;2.75;;;1.42;;
19969;SDS011;10146;47.754;9.566;2023-09-19T02:43:05;4.53;;;1.40;;
19969;SDS011;10146;47.754;9.566;2023-09-19T02:45:32;4.05;;;1.60;;
19969;SDS011;10146;47.754;9.566;2023-09-19T02:47:57;2.85;;;1.38;;
19969;SDS011;10146;47.754;9.566;2023-09-19T02:50:23;3.05;;;1.77;;
19969;SDS011;10146;47.754;9.566;2023-09-19T02:52:49;3.22;;;1.88;;
19969;SDS011;10146;47.754;9.566;2023-09-19T02:55:15;2.08;;;1.70;;
19969;SDS011;10146;47.754;9.566;2023-09-19T02:57:51;2.75;;;1.48;;
19969;SDS011;10146;47.754;9.566;2023-09-19T03:00:19;2.03;;;1.63;;
19969;SDS011;10146;47.754;9.566;2023-09-19T03:02:46;4.25;;;1.45;;
19969;SDS011;10146;47.754;9.566;2023-09-19T03:05:12;2.20;;;1.65;;
19969;SDS011;10146;47.754;9.566;2023-09-19T03:07:38;2.00;;;1.50;;
19969;SDS011;10146;47.754;9.566;2023-09-19T03:10:05;1.73;;;1.30;;
19969;SDS011;10146;47.754;9.566;2023-09-19T03:12:32;2.35;;;1.48;;
19969;SDS011;10146;47.754;9.566;2023-09-19T03:14:58;3.20;;;1.70;;
19969;SDS011;10146;47.754;9.566;2023-09-19T03:17:24;2.78;;;1.67;;
19969;SDS011;10146;47.754;9.566;2023-09-19T03:19:50;4.25;;;1.70;;
19969;SDS011;10146;47.754;9.566;2023-09-19T03:22:16;4.05;;;1.60;;
19969;SDS011;10146;47.754;9.566;2023-09-19T03:24:42;2.22;;;1.77;;
19969;SDS011;10146;47.754;9.566;2023-09-19T03:27:12;2.30;;;1.70;;
19969;SDS011;10146;47.754;9.566;2023-09-19T03:29:41;2.78;;;1.65;;
19969;SDS011;10146;47.754;9.566;2023-09-19T03:32:09;3.50;;;1.35;;
19969;SDS011;10146;47.754;9.566;2023-09-19T03:34:36;3.03;;;1.40;;
19969;SDS011;10146;47.754;9.566;2023-09-19T03:37:05;5.30;;;1.90;;
19969;SDS011;10146;47.754;9.566;2023-09-19T03:39:31;3.75;;;1.80;;
19969;SDS011;10146;47.754;9.566;2023-09-19T03:41:57;1.85;;;1.75;;
19969;SDS011;10146;47.754;9.566;2023-09-19T03:44:23;2.03;;;1.55;;
19969;SDS011;10146;47.754;9.566;2023-09-19T03:46:48;2.55;;;1.90;;
19969;SDS011;10146;47.754;9.566;2023-09-19T03:49:14;3.10;;;1.40;;
19969;SDS011;10146;47.754;9.566;2023-09-19T03:51:39;2.13;;;1.52;;
19969;SDS011;10146;47.754;9.566;2023-09-19T03:54:06;4.72;;;1.80;;
19969;SDS011;10146;47.754;9.566;2023-09-19T03:56:32;3.10;;;1.33;;
19969;SDS011;10146;47.754;9.566;2023-09-19T03:58:58;5.35;;;1.60;;
19969;SDS011;10146;47.754;9.566;2023-09-19T04:01:24;3.50;;;1.63;;
19969;SDS011;10146;47.754;9.566;2023-09-19T04:03:49;2.67;;;1.90;;
19969;SDS011;10146;47.754;9.566;2023-09-19T04:06:17;3.33;;;1.67;;
19969;SDS011;10146;47.754;9.566;2023-09-19T04:08:43;4.43;;;1.80;;
19969;SDS011;10146;47.754;9.566;2023-09-19T04:11:09;2.92;;;1.67;;
19969;SDS011;10146;47.754;9.566;2023-09-19T04:13:35;1.70;;;1.60;;
19969;SDS011;10146;47.754;9.566;2023-09-19T04:16:01;3.22;;;1.50;;
19969;SDS011;10146;47.754;9.566;2023-09-19T04:18:28;2.50;;;1.70;;
19969;SDS011;10146;47.754;9.566;2023-09-19T04:20:57;1.75;;;1.50;;
19969;SDS011;10146;47.754;9.566;2023-09-19T04:23:23;2.38;;;1.52;;
19969;SDS011;10146;47.754;9.566;2023-09-19T04:25:49;2.33;;;1.40;;
19969;SDS011;10146;47.754;9.566;2023-09-19T04:28:15;4.90;;;1.50;;
19969;SDS011;10146;47.754;9.566;2023-09-19T04:30:41;1.83;;;1.52;;
19969;SDS011;10146;47.754;9.566;2023-09-19T04:33:06;3.22;;;1.92;;
19969;SDS011;10146;47.754;9.566;2023-09-19T04:35:32;4.03;;;2.00;;
19969;SDS011;10146;47.754;9.566;2023-09-19T04:37:58;3.15;;;1.60;;
19969;SDS011;10146;47.754;9.566;2023-09-19T04:40:25;3.03;;;1.65;;
19969;SDS011;10146;47.754;9.566;2023-09-19T04:42:55;2.67;;;1.70;;
19969;SDS011;10146;47.754;9.566;2023-09-19T04:45:27;1.30;;;1.20;;
19969;SDS011;10146;47.754;9.566;2023-09-19T04:47:53;2.35;;;1.50;;
19969;SDS011;10146;47.754;9.566;2023-09-19T04:50:19;2.20;;;1.67;;
19969;SDS011;10146;47.754;9.566;2023-09-19T04:52:48;2.90;;;1.55;;
19969;SDS011;10146;47.754;9.566;2023-09-19T04:55:16;1.70;;;1.52;;
19969;SDS011;10146;47.754;9.566;2023-09-19T04:57:43;3.58;;;1.63;;
19969;SDS011;10146;47.754;9.566;2023-09-19T05:00:13;2.42;;;1.52;;
19969;SDS011;10146;47.754;9.566;2023-09-19T05:02:41;3.85;;;1.50;;
19969;SDS011;10146;47.754;9.566;2023-09-19T05:05:08;5.60;;;1.83;;
19969;SDS011;10146;47.754;9.566;2023-09-19T05:07:40;2.22;;;1.60;;
19969;SDS011;10146;47.754;9.566;2023-09-19T05:10:07;4.13;;;1.60;;
19969;SDS011;10146;47.754;9.566;2023-09-19T05:12:36;2.65;;;2.03;;
19969;SDS011;10146;47.754;9.566;2023-09-19T05:15:03;2.90;;;2.30;;
19969;SDS011;10146;47.754;9.566;2023-09-19T05:17:32;3.53;;;1.80;;
19969;SDS011;10146;47.754;9.566;2023-09-19T05:19:59;1.70;;;1.60;;
19969;SDS011;10146;47.754;9.566;2023-09-19T05:22:40;2.58;;;1.70;;
19969;SDS011;10146;47.754;9.566;2023-09-19T05:25:06;3.58;;;1.60;;
19969;SDS011;10146;47.754;9.566;2023-09-19T05:27:32;2.88;;;1.50;;
19969;SDS011;10146;47.754;9.566;2023-09-19T05:29:58;3.70;;;1.67;;
19969;SDS011;10146;47.754;9.566;2023-09-19T05:32:24;1.98;;;1.48;;
19969;SDS011;10146;47.754;9.566;2023-09-19T05:34:50;1.60;;;1.50;;
19969;SDS011;10146;47.754;9.566;2023-09-19T05:37:21;1.55;;;1.45;;
19969;SDS011;10146;47.754;9.566;2023-09-19T05:39:48;2.92;;;1.65;;
19969;SDS011;10146;47.754;9.566;2023-09-19T05:42:14;2.15;;;1.60;;
19969;SDS011;10146;47.754;9.566;2023-09-19T05:44:39;2.05;;;1.30;;
19969;SDS011;10146;47.754;9.566;2023-09-19T05:47:05;2.40;;;1.60;;
19969;SDS011;10146;47.754;9.566;2023-09-19T05:49:34;3.33;;;1.55;;
19969;SDS011;10146;47.754;9.566;2023-09-19T05:52:03;2.33;;;1.52;;
19969;SDS011;10146;47.754;9.566;2023-09-19T05:54:32;1.77;;;1.55;;
19969;SDS011;10146;47.754;9.566;2023-09-19T05:56:59;2.45;;;1.30;;
19969;SDS011;10146;47.754;9.566;2023-09-19T05:59:25;2.50;;;1.40;;
19969;SDS011;10146;47.754;9.566;2023-09-19T06:01:51;1.58;;;1.35;;
19969;SDS011;10146;47.754;9.566;2023-09-19T06:04:17;1.63;;;1.30;;
19969;SDS011;10146;47.754;9.566;2023-09-19T06:06:44;1.38;;;1.20;;
19969;SDS011;10146;47.754;9.566;2023-09-19T06:09:10;2.90;;;1.33;;
19969;SDS011;10146;47.754;9.566;2023-09-19T06:11:35;2.58;;;1.50;;
19969;SDS011;10146;47.754;9.566;2023-09-19T06:14:01;2.83;;;1.33;;
19969;SDS011;10146;47.754;9.566;2023-09-19T06:16:28;3.72;;;1.50;;
19969;SDS011;10146;47.754;9.566;2023-09-19T06:18:54;2.83;;;1.10;;
19969;SDS011;10146;47.754;9.566;2023-09-19T06:21:21;1.90;;;1.50;;
19969;SDS011;10146;47.754;9.566;2023-09-19T06:23:48;2.15;;;1.38;;
19969;SDS011;10146;47.754;9.566;2023-09-19T06:26:13;2.10;;;1.63;;
19969;SDS011;10146;47.754;9.566;2023-09-19T06:28:39;3.25;;;1.27;;
19969;SDS011;10146;47.754;9.566;2023-09-19T06:31:06;1.30;;;1.20;;
19969;SDS011;10146;47.754;9.566;2023-09-19T06:33:35;1.77;;;1.30;;
19969;SDS011;10146;47.754;9.566;2023-09-19T06:36:03;1.63;;;1.20;;
19969;SDS011;10146;47.754;9.566;2023-09-19T06:38:29;2.70;;;1.30;;
19969;SDS011;10146;47.754;9.566;2023-09-19T06:40:56;1.60;;;1.17;;
19969;SDS011;10146;47.754;9.566;2023-09-19T06:43:23;2.78;;;0.80;;
19969;SDS011;10146;47.754;9.566;2023-09-19T06:45:49;3.78;;;1.60;;
19969;SDS011;10146;47.754;9.566;2023-09-19T06:48:16;1.98;;;1.10;;
19969;SDS011;10146;47.754;9.566;2023-09-19T06:50:43;3.10;;;1.08;;
19969;SDS011;10146;47.754;9.566;2023-09-19T06:53:09;0.88;;;0.85;;
19969;SDS011;10146;47.754;9.566;2023-09-19T06:55:35;2.95;;;1.15;;
19969;SDS011;10146;47.754;9.566;2023-09-19T06:58:01;2.75;;;1.17;;
19969;SDS011;10146;47.754;9.566;2023-09-19T07:00:27;1.92;;;1.17;;
19969;SDS011;10146;47.754;9.566;2023-09-19T07:03:00;3.05;;;1.05;;
19969;SDS011;10146;47.754;9.566;2023-09-19T07:05:32;1.42;;;1.02;;
19969;SDS011;10146;47.754;9.566;2023-09-19T07:07:59;1.23;;;0.95;;
19969;SDS011;10146;47.754;9.566;2023-09-19T07:10:26;2.10;;;1.00;;
19969;SDS011;10146;47.754;9.566;2023-09-19T07:15:37;1.27;;;0.90;;
19969;SDS011;10146;47.754;9.566;2023-09-19T07:18:11;1.58;;;1.05;;
19969;SDS011;10146;47.754;9.566;2023-09-19T07:20:42;2.72;;;1.02;;
19969;SDS011;10146;47.754;9.566;2023-09-19T07:23:20;1.58;;;1.00;;
19969;SDS011;10146;47.754;9.566;2023-09-19T07:25:51;2.25;;;1.20;;
19969;SDS011;10146;47.754;9.566;2023-09-19T07:28:16;2.13;;;0.80;;
19969;SDS011;10146;47.754;9.566;2023-09-19T07:30:42;1.52;;;0.70;;
19969;SDS011;10146;47.754;9.566;2023-09-19T07:33:09;1.58;;;0.80;;
19969;SDS011;10146;47.754;9.566;2023-09-19T07:35:37;1.13;;;1.02;;
19969;SDS011;10146;47.754;9.566;2023-09-19T07:38:06;1.08;;;0.90;;
19969;SDS011;10146;47.754;9.566;2023-09-19T07:40:32;1.20;;;0.90;;
19969;SDS011;10146;47.754;9.566;2023-09-19T07:42:58;3.13;;;1.10;;
19969;SDS011;10146;47.754;9.566;2023-09-19T07:45:27;1.33;;;1.00;;
19969;SDS011;10146;47.754;9.566;2023-09-19T07:47:56;1.27;;;0.80;;
19969;SDS011;10146;47.754;9.566;2023-09-19T07:50:22;3.35;;;0.80;;
19969;SDS011;10146;47.754;9.566;2023-09-19T07:52:48;3.90;;;1.10;;
19969;SDS011;10146;47.754;9.566;2023-09-19T07:55:18;2.10;;;0.90;;
19969;SDS011;10146;47.754;9.566;2023-09-19T07:57:48;1.35;;;0.90;;
19969;SDS011;10146;47.754;9.566;2023-09-19T08:00:14;2.22;;;0.93;;
19969;SDS011;10146;47.754;9.566;2023-09-19T08:02:40;1.83;;;0.90;;
19969;SDS011;10146;47.754;9.566;2023-09-19T08:05:08;1.00;;;0.70;;
19969;SDS011;10146;47.754;9.566;2023-09-19T08:07:37;1.40;;;1.20;;
19969;SDS011;10146;47.754;9.566;2023-09-19T08:10:06;1.42;;;0.90;;
19969;SDS011;10146;47.754;9.566;2023-09-19T08:12:36;1.58;;;1.00;;
19969;SDS011;10146;47.754;9.566;2023-09-19T08:15:02;1.67;;;1.02;;
19969;SDS011;10146;47.754;9.566;2023-09-19T08:17:33;0.85;;;0.80;;
19969;SDS011;10146;47.754;9.566;2023-09-19T08:19:59;2.75;;;0.88;;
19969;SDS011;10146;47.754;9.566;2023-09-19T08:22:25;3.00;;;0.90;;
19969;SDS011;10146;47.754;9.566;2023-09-19T08:24:52;3.78;;;1.10;;
19969;SDS011;10146;47.754;9.566;2023-09-19T08:27:17;0.77;;;0.77;;
19969;SDS011;10146;47.754;9.566;2023-09-19T08:29:44;1.42;;;1.10;;
19969;SDS011;10146;47.754;9.566;2023-09-19T08:32:11;1.90;;;0.98;;
19969;SDS011;10146;47.754;9.566;2023-09-19T08:34:37;3.03;;;1.00;;
19969;SDS011;10146;47.754;9.566;2023-09-19T08:37:03;1.70;;;1.00;;
19969;SDS011;10146;47.754;9.566;2023-09-19T08:39:29;3.58;;;1.00;;
19969;SDS011;10146;47.754;9.566;2023-09-19T08:41:58;1.50;;;1.00;;
19969;SDS011;10146;47.754;9.566;2023-09-19T08:44:24;2.67;;;0.90;;
19969;SDS011;10146;47.754;9.566;2023-09-19T08:46:53;2.83;;;1.52;;
19969;SDS011;10146;47.754;9.566;2023-09-19T08:49:24;2.13;;;0.82;;
19969;SDS011;10146;47.754;9.566;2023-09-19T08:52:09;2.15;;;0.90;;
19969;SDS011;10146;47.754;9.566;2023-09-19T08:54:41;1.00;;;0.90;;
19969;SDS011;10146;47.754;9.566;2023-09-19T08:57:08;1.20;;;0.95;;
19969;SDS011;10146;47.754;9.566;2023-09-19T08:59:39;2.78;;;1.10;;
19969;SDS011;10146;47.754;9.566;2023-09-19T09:02:15;1.83;;;0.93;;
19969;SDS011;10146;47.754;9.566;2023-09-19T09:04:43;1.42;;;1.00;;
19969;SDS011;10146;47.754;9.566;2023-09-19T09:07:11;2.72;;;1.20;;
19969;SDS011;10146;47.754;9.566;2023-09-19T09:09:42;2.42;;;0.82;;
19969;SDS011;10146;47.754;9.566;2023-09-19T09:12:10;1.27;;;0.90;;
19969;SDS011;10146;47.754;9.566;2023-09-19T09:14:37;1.58;;;1.00;;
19969;SDS011;10146;47.754;9.566;2023-09-19T09:17:03;1.83;;;1.00;;
19969;SDS011;10146;47.754;9.566;2023-09-19T09:19:29;1.45;;;1.10;;
19969;SDS011;10146;47.754;9.566;2023-09-19T09:22:05;1.52;;;0.98;;
19969;SDS011;10146;47.754;9.566;2023-09-19T09:24:34;1.80;;;1.15;;
19969;SDS011;10146;47.754;9.566;2023-09-19T09:27:03;1.48;;;1.10;;
19969;SDS011;10146;47.754;9.566;2023-09-19T09:29:44;3.50;;;1.20;;
19969;SDS011;10146;47.754;9.566;2023-09-19T09:32:24;1.50;;;1.02;;
19969;SDS011;10146;47.754;9.566;2023-09-19T09:34:54;2.90;;;1.42;;
19969;SDS011;10146;47.754;9.566;2023-09-19T09:37:21;1.67;;;0.90;;
19969;SDS011;10146;47.754;9.566;2023-09-19T09:39:53;1.00;;;0.90;;
19969;SDS011;10146;47.754;9.566;2023-09-19T09:42:32;2.80;;;1.40;;
19969;SDS011;10146;47.754;9.566;2023-09-19T09:47:59;1.52;;;1.20;;
19969;SDS011;10146;47.754;9.566;2023-09-19T09:50:32;2.35;;;1.20;;
19969;SDS011;10146;47.754;9.566;2023-09-19T09:53:26;2.15;;;1.10;;
19969;SDS011;10146;47.754;9.566;2023-09-19T09:58:52;2.75;;;1.50;;
19969;SDS011;10146;47.754;9.566;2023-09-19T10:01:21;1.98;;;1.20;;
19969;SDS011;10146;47.754;9.566;2023-09-19T10:03:52;3.05;;;1.35;;
19969;SDS011;10146;47.754;9.566;2023-09-19T10:06:22;2.42;;;1.10;;
19969;SDS011;10146;47.754;9.566;2023-09-19T10:11:48;2.35;;;1.10;;
19969;SDS011;10146;47.754;9.566;2023-09-19T10:14:29;1.83;;;1.17;;
19969;SDS011;10146;47.754;9.566;2023-09-19T10:16:56;2.42;;;1.30;;
19969;SDS011;10146;47.754;9.566;2023-09-19T10:19:42;1.38;;;1.00;;
19969;SDS011;10146;47.754;9.566;2023-09-19T10:22:18;1.17;;;1.00;;
19969;SDS011;10146;47.754;9.566;2023-09-19T10:24:47;1.27;;;1.10;;
19969;SDS011;10146;47.754;9.566;2023-09-19T10:27:18;4.28;;;1.10;;
19969;SDS011;10146;47.754;9.566;2023-09-19T10:29:45;1.30;;;1.20;;
19969;SDS011;10146;47.754;9.566;2023-09-19T10:32:19;1.58;;;1.13;;
19969;SDS011;10146;47.754;9.566;2023-09-19T10:34:48;1.27;;;1.00;;
19969;SDS011;10146;47.754;9.566;2023-09-19T10:37:15;1.73;;;0.93;;
19969;SDS011;10146;47.754;9.566;2023-09-19T10:39:45;4.07;;;1.10;;
19969;SDS011;10146;47.754;9.566;2023-09-19T10:42:11;2.63;;;1.10;;
19969;SDS011;10146;47.754;9.566;2023-09-19T10:44:42;2.55;;;1.15;;
19969;SDS011;10146;47.754;9.566;2023-09-19T10:47:10;1.98;;;1.10;;
19969;SDS011;10146;47.754;9.566;2023-09-19T10:49:42;3.55;;;1.15;;
19969;SDS011;10146;47.754;9.566;2023-09-19T10:52:11;3.00;;;1.13;;
19969;SDS011;10146;47.754;9.566;2023-09-19T10:54:44;1.88;;;1.00;;
19969;SDS011;10146;47.754;9.566;2023-09-19T10:57:20;1.08;;;0.82;;
19969;SDS011;10146;47.754;9.566;2023-09-19T11:00:01;1.73;;;1.15;;
19969;SDS011;10146;47.754;9.566;2023-09-19T11:05:39;1.70;;;0.82;;
19969;SDS011;10146;47.754;9.566;2023-09-19T11:08:09;1.65;;;1.02;;
19969;SDS011;10146;47.754;9.566;2023-09-19T11:10:49;1.42;;;0.93;;
19969;SDS011;10146;47.754;9.566;2023-09-19T11:13:29;1.90;;;0.90;;
19969;SDS011;10146;47.754;9.566;2023-09-19T11:26:49;2.47;;;1.30;;
19969;SDS011;10146;47.754;9.566;2023-09-19T11:29:29;3.70;;;1.20;;
19969;SDS011;10146;47.754;9.566;2023-09-19T11:31:56;3.35;;;1.25;;
19969;SDS011;10146;47.754;9.566;2023-09-19T11:37:02;1.10;;;1.00;;
19969;SDS011;10146;47.754;9.566;2023-09-19T11:40:07;1.38;;;1.10;;
19969;SDS011;10146;47.754;9.566;2023-09-19T11:42:42;1.95;;;1.00;;
19969;SDS011;10146;47.754;9.566;2023-09-19T11:48:18;2.58;;;1.10;;
19969;SDS011;10146;47.754;9.566;2023-09-19T11:50:44;2.38;;;1.10;;
19969;SDS011;10146;47.754;9.566;2023-09-19T11:53:12;3.17;;;1.08;;
19969;SDS011;10146;47.754;9.566;2023-09-19T11:55:38;1.23;;;0.90;;
19969;SDS011;10146;47.754;9.566;2023-09-19T11:58:06;1.35;;;0.90;;
19969;SDS011;10146;47.754;9.566;2023-09-19T12:00:33;1.40;;;1.17;;
19969;SDS011;10146;47.754;9.566;2023-09-19T12:03:01;4.78;;;1.30;;
19969;SDS011;10146;47.754;9.566;2023-09-19T12:05:34;2.00;;;1.10;;
19969;SDS011;10146;47.754;9.566;2023-09-19T12:08:00;2.83;;;1.33;;
19969;SDS011;10146;47.754;9.566;2023-09-19T12:10:26;1.95;;;1.05;;
19969;SDS011;10146;47.754;9.566;2023-09-19T12:12:52;3.22;;;1.23;;
19969;SDS011;10146;47.754;9.566;2023-09-19T12:15:25;2.55;;;1.30;;
19969;SDS011;10146;47.754;9.566;2023-09-19T12:17:59;2.35;;;1.20;;
19969;SDS011;10146;47.754;9.566;2023-09-19T12:20:26;1.48;;;1.20;;
19969;SDS011;10146;47.754;9.566;2023-09-19T12:23:14;2.28;;;1.10;;
19969;SDS011;10146;47.754;9.566;2023-09-19T12:25:41;1.65;;;0.90;;
19969;SDS011;10146;47.754;9.566;2023-09-19T12:28:11;2.17;;;1.02;;
19969;SDS011;10146;47.754;9.566;2023-09-19T12:30:37;2.55;;;1.05;;
19969;SDS011;10146;47.754;9.566;2023-09-19T12:33:14;2.67;;;1.45;;
19969;SDS011;10146;47.754;9.566;2023-09-19T12:35:44;1.58;;;0.90;;
19969;SDS011;10146;47.754;9.566;2023-09-19T12:38:10;4.55;;;1.30;;
19969;SDS011;10146;47.754;9.566;2023-09-19T12:40:37;1.60;;;1.20;;
19969;SDS011;10146;47.754;9.566;2023-09-19T12:43:07;2.35;;;1.10;;
19969;SDS011;10146;47.754;9.566;2023-09-19T12:45:34;1.60;;;1.08;;
19969;SDS011;10146;47.754;9.566;2023-09-19T12:48:21;1.42;;;1.17;;
19969;SDS011;10146;47.754;9.566;2023-09-19T12:51:12;3.63;;;1.25;;
19969;SDS011;10146;47.754;9.566;2023-09-19T12:56:06;1.48;;;1.10;;
19969;SDS011;10146;47.754;9.566;2023-09-19T12:58:32;2.03;;;0.80;;
19969;SDS011;10146;47.754;9.566;2023-09-19T13:00:59;1.80;;;0.85;;
19969;SDS011;10146;47.754;9.566;2023-09-19T13:03:30;1.38;;;0.90;;
19969;SDS011;10146;47.754;9.566;2023-09-19T13:06:01;2.03;;;1.00;;
19969;SDS011;10146;47.754;9.566;2023-09-19T13:11:03;1.45;;;0.95;;
19969;SDS011;10146;47.754;9.566;2023-09-19T13:22:38;1.98;;;1.10;;
19969;SDS011;10146;47.754;9.566;2023-09-19T13:25:10;4.03;;;1.40;;
19969;SDS011;10146;47.754;9.566;2023-09-19T13:27:45;1.48;;;1.20;;
19969;SDS011;10146;47.754;9.566;2023-09-19T13:30:20;1.77;;;1.27;;
19969;SDS011;10146;47.754;9.566;2023-09-19T13:32:47;1.65;;;1.10;;
19969;SDS011;10146;47.754;9.566;2023-09-19T13:35:13;2.45;;;1.20;;
19969;SDS011;10146;47.754;9.566;2023-09-19T13:37:40;2.15;;;1.10;;
19969;SDS011;10146;47.754;9.566;2023-09-19T13:40:11;1.35;;;0.98;;
19969;SDS011;10146;47.754;9.566;2023-09-19T13:42:37;2.97;;;1.15;;
19969;SDS011;10146;47.754;9.566;2023-09-19T13:45:04;2.75;;;1.17;;
19969;SDS011;10146;47.754;9.566;2023-09-19T13:47:30;2.75;;;1.10;;
19969;SDS011;10146;47.754;9.566;2023-09-19T13:49:57;1.83;;;1.00;;
19969;SDS011;10146;47.754;9.566;2023-09-19T13:52:23;1.10;;;1.00;;
19969;SDS011;10146;47.754;9.566;2023-09-19T13:54:53;3.35;;;0.95;;
19969;SDS011;10146;47.754;9.566;2023-09-19T13:57:21;2.85;;;0.90;;
19969;SDS011;10146;47.754;9.566;2023-09-19T13:59:48;1.75;;;0.90;;
19969;SDS011;10146;47.754;9.566;2023-09-19T14:02:13;0.60;;;0.60;;
19969;SDS011;10146;47.754;9.566;2023-09-19T14:04:39;1.98;;;0.90;;
19969;SDS011;10146;47.754;9.566;2023-09-19T14:07:06;1.20;;;1.10;;
19969;SDS011;10146;47.754;9.566;2023-09-19T14:09:32;1.20;;;0.80;;
19969;SDS011;10146;47.754;9.566;2023-09-19T14:11:59;2.17;;;1.13;;
19969;SDS011;10146;47.754;9.566;2023-09-19T14:14:24;1.88;;;1.00;;
19969;SDS011;10146;47.754;9.566;2023-09-19T14:16:50;1.95;;;1.00;;
19969;SDS011;10146;47.754;9.566;2023-09-19T14:19:19;1.33;;;0.93;;
19969;SDS011;10146;47.754;9.566;2023-09-19T14:21:45;2.50;;;1.08;;
19969;SDS011;10146;47.754;9.566;2023-09-19T14:24:13;2.08;;;1.25;;
19969;SDS011;10146;47.754;9.566;2023-09-19T14:26:42;1.23;;;0.90;;
19969;SDS011;10146;47.754;9.566;2023-09-19T14:29:08;0.90;;;0.80;;
19969;SDS011;10146;47.754;9.566;2023-09-19T14:31:36;1.48;;;1.23;;
19969;SDS011;10146;47.754;9.566;2023-09-19T14:34:05;0.80;;;0.80;;
19969;SDS011;10146;47.754;9.566;2023-09-19T14:36:31;2.95;;;1.00;;
19969;SDS011;10146;47.754;9.566;2023-09-19T14:38:58;1.88;;;1.20;;
19969;SDS011;10146;47.754;9.566;2023-09-19T14:41:24;2.80;;;0.98;;
19969;SDS011;10146;47.754;9.566;2023-09-19T14:43:50;1.10;;;1.00;;
19969;SDS011;10146;47.754;9.566;2023-09-19T14:46:17;1.63;;;1.08;;
19969;SDS011;10146;47.754;9.566;2023-09-19T14:48:43;2.67;;;0.98;;
19969;SDS011;10146;47.754;9.566;2023-09-19T14:51:12;1.35;;;0.90;;
19969;SDS011;10146;47.754;9.566;2023-09-19T14:53:38;1.25;;;1.02;;
19969;SDS011;10146;47.754;9.566;2023-09-19T14:56:05;1.00;;;0.90;;
19969;SDS011;10146;47.754;9.566;2023-09-19T14:58:32;1.30;;;1.02;;
19969;SDS011;10146;47.754;9.566;2023-09-19T15:03:34;1.40;;;0.85;;
19969;SDS011;10146;47.754;9.566;2023-09-19T15:06:04;1.40;;;0.95;;
19969;SDS011;10146;47.754;9.566;2023-09-19T15:08:31;1.20;;;0.90;;
19969;SDS011;10146;47.754;9.566;2023-09-19T15:11:02;2.65;;;1.85;;
19969;SDS011;10146;47.754;9.566;2023-09-19T15:13:30;2.10;;;0.90;;
19969;SDS011;10146;47.754;9.566;2023-09-19T15:16:03;0.65;;;0.65;;
19969;SDS011;10146;47.754;9.566;2023-09-19T15:18:33;1.88;;;1.30;;
19969;SDS011;10146;47.754;9.566;2023-09-19T15:21:02;2.13;;;0.80;;
19969;SDS011;10146;47.754;9.566;2023-09-19T15:23:29;1.23;;;0.80;;
19969;SDS011;10146;47.754;9.566;2023-09-19T15:25:56;1.02;;;0.88;;
19969;SDS011;10146;47.754;9.566;2023-09-19T15:28:22;0.98;;;0.80;;
19969;SDS011;10146;47.754;9.566;2023-09-19T15:30:48;1.50;;;0.80;;
19969;SDS011;10146;47.754;9.566;2023-09-19T15:33:14;2.05;;;1.17;;
19969;SDS011;10146;47.754;9.566;2023-09-19T15:35:40;1.13;;;1.00;;
19969;SDS011;10146;47.754;9.566;2023-09-19T15:38:07;2.88;;;1.00;;
19969;SDS011;10146;47.754;9.566;2023-09-19T15:40:33;1.15;;;0.90;;
19969;SDS011;10146;47.754;9.566;2023-09-19T15:42:59;1.15;;;0.80;;
19969;SDS011;10146;47.754;9.566;2023-09-19T15:45:25;1.23;;;1.00;;
19969;SDS011;10146;47.754;9.566;2023-09-19T15:47:51;1.48;;;0.90;;
19969;SDS011;10146;47.754;9.566;2023-09-19T15:50:16;0.80;;;0.80;;
19969;SDS011;10146;47.754;9.566;2023-09-19T15:52:42;1.13;;;0.90;;
19969;SDS011;10146;47.754;9.566;2023-09-19T15:55:08;1.00;;;0.77;;